Time;durP1;ratioP1;P1;durP2;ratioP2;P2;SDS_P1;SDS_P2;PMS_P1;PMS_P2;Temp;Humidity;BMP_temperature;BMP_pressure;BME280_temperature;BME280_humidity;BME280_pressure;Samples;Min_cycle;Max_cycle;Signal;HPM_P1;HPM_P2
2021/04/23 00:02:09;;;;;;;10.63;4.70;;;4.20;97.10;;;;;;4360031;32;20603;-61
2021/04/23 00:04:47;;;;;;;11.73;4.90;;;4.10;97.40;;;;;;4360427;33;20159;-61
2021/04/23 00:07:30;;;;;;;10.33;4.93;;;4.10;97.70;;;;;;4360589;33;20630;-61
2021/04/23 00:10:12;;;;;;;10.33;4.77;;;4.10;97.70;;;;;;4359843;33;20203;-61
2021/04/23 00:12:45;;;;;;;9.73;4.70;;;4.00;97.40;;;;;;4345795;33;20550;-64
2021/04/23 00:15:24;;;;;;;10.97;5.43;;;4.00;97.40;;;;;;4360014;33;20146;-61
2021/04/23 00:17:53;;;;;;;17.47;5.23;;;4.00;97.60;;;;;;4359404;32;20181;-62
2021/04/23 00:20:44;;;;;;;13.33;5.80;;;4.00;97.80;;;;;;4349645;32;20149;-62
2021/04/23 00:23:16;;;;;;;12.53;4.70;;;4.00;97.50;;;;;;4306187;33;20155;-62
2021/04/23 00:25:49;;;;;;;12.73;5.10;;;3.90;97.30;;;;;;4313765;33;20267;-64
2021/04/23 00:28:23;;;;;;;12.20;4.73;;;3.90;97.40;;;;;;4313636;33;20189;-63
2021/04/23 00:30:55;;;;;;;10.60;5.63;;;3.90;97.50;;;;;;4313780;33;20164;-61
2021/04/23 00:33:24;;;;;;;12.17;5.17;;;3.80;97.40;;;;;;4313257;33;20155;-61
2021/04/23 00:35:55;;;;;;;10.87;5.37;;;3.80;97.40;;;;;;4313311;33;20170;-65
2021/04/23 00:41:22;;;;;;;10.40;5.30;;;3.80;97.20;;;;;;4313443;33;20245;-64
2021/04/23 00:44:05;;;;;;;8.40;5.20;;;3.70;96.90;;;;;;4313503;33;20172;-61
2021/04/23 00:52:13;;;;;;;15.77;6.47;;;3.60;97.30;;;;;;4323498;33;20252;-62
2021/04/23 00:54:44;;;;;;;11.23;5.20;;;3.50;97.30;;;;;;4313269;33;20220;-60
2021/04/23 00:57:13;;;;;;;14.40;5.30;;;3.50;97.30;;;;;;4316534;33;20568;-64
2021/04/23 00:59:48;;;;;;;11.63;4.77;;;3.50;97.20;;;;;;4330026;33;20157;-62
2021/04/23 01:02:22;;;;;;;9.27;5.03;;;3.50;97.30;;;;;;4349235;33;20538;-60
2021/04/23 01:04:49;;;;;;;9.67;5.10;;;3.50;97.20;;;;;;4362717;32;20149;-63
2021/04/23 01:07:20;;;;;;;13.73;5.47;;;3.50;97.40;;;;;;4363330;32;20585;-63
2021/04/23 01:09:54;;;;;;;10.17;5.17;;;3.60;97.50;;;;;;4363295;32;20546;-61
2021/04/23 01:12:20;;;;;;;9.63;4.83;;;3.60;97.40;;;;;;4361767;33;20156;-62
2021/04/23 01:14:54;;;;;;;11.17;4.67;;;3.70;97.20;;;;;;4361938;32;20153;-64
2021/04/23 01:17:55;;;;;;;11.73;5.70;;;3.70;97.20;;;;;;4361867;32;20326;-61
2021/04/23 01:20:33;;;;;;;13.57;5.73;;;3.70;97.30;;;;;;4363090;32;20150;-62
2021/04/23 01:23:07;;;;;;;10.93;5.80;;;3.70;97.30;;;;;;4347721;33;20483;-64
2021/04/23 01:25:38;;;;;;;11.63;5.00;;;3.60;97.30;;;;;;4361465;32;20259;-62
2021/04/23 01:28:10;;;;;;;9.37;6.03;;;3.70;97.20;;;;;;4362379;33;20187;-61
2021/04/23 01:30:47;;;;;;;11.07;5.13;;;3.60;97.30;;;;;;4362508;32;20556;-62
2021/04/23 01:33:19;;;;;;;11.30;5.00;;;3.60;97.50;;;;;;4362484;33;20785;-62
2021/04/23 01:35:53;;;;;;;12.23;5.40;;;3.60;97.50;;;;;;4361375;32;20236;-62
2021/04/23 01:38:38;;;;;;;11.10;5.27;;;3.70;97.70;;;;;;4362640;33;20612;-59
2021/04/23 01:41:13;;;;;;;13.97;5.47;;;3.70;97.70;;;;;;4362519;32;20167;-62
2021/04/23 01:43:54;;;;;;;10.83;5.67;;;3.60;97.70;;;;;;4362452;32;20163;-63
2021/04/23 01:46:20;;;;;;;13.07;5.13;;;3.60;97.80;;;;;;4361675;32;20145;-61
2021/04/23 01:48:56;;;;;;;9.90;5.10;;;3.50;97.60;;;;;;4362141;33;20183;-62
2021/04/23 01:51:29;;;;;;;14.00;5.57;;;3.50;97.90;;;;;;4371392;32;20178;-62
2021/04/23 01:54:00;;;;;;;9.53;4.90;;;3.40;97.70;;;;;;4376982;32;20480;-61
2021/04/23 01:56:40;;;;;;;14.73;5.20;;;3.40;98.10;;;;;;4376661;32;20160;-65
2021/04/23 01:59:22;;;;;;;8.43;5.30;;;3.40;98.10;;;;;;4375895;32;20677;-63
2021/04/23 02:01:50;;;;;;;10.63;5.20;;;3.30;98.10;;;;;;4378257;32;20168;-60
2021/04/23 02:04:24;;;;;;;10.37;5.03;;;3.30;98.00;;;;;;4376818;32;20479;-63
2021/04/23 02:06:56;;;;;;;11.33;6.63;;;3.30;98.50;;;;;;4374625;32;20144;-61
2021/04/23 02:09:33;;;;;;;8.43;5.00;;;3.30;98.50;;;;;;4376349;32;20145;-62
2021/04/23 02:12:06;;;;;;;12.10;5.43;;;3.20;98.30;;;;;;4376598;32;20144;-61
2021/04/23 02:14:50;;;;;;;9.53;4.83;;;3.20;98.20;;;;;;4376229;32;20180;-60
2021/04/23 02:17:46;;;;;;;11.40;5.13;;;3.20;98.20;;;;;;4375060;32;20187;-62
2021/04/23 02:20:23;;;;;;;13.37;5.70;;;3.10;98.20;;;;;;4319353;33;20169;-62
2021/04/23 02:22:50;;;;;;;10.70;4.97;;;3.20;97.90;;;;;;4332933;33;20169;-61
2021/04/23 02:25:22;;;;;;;12.50;5.47;;;3.10;97.80;;;;;;4328707;33;20497;-61
2021/04/23 02:27:53;;;;;;;9.50;4.77;;;3.20;97.90;;;;;;4316185;33;20563;-58
2021/04/23 02:30:48;;;;;;;14.17;5.60;;;3.10;97.60;;;;;;4330380;33;20166;-60
2021/04/23 02:33:27;;;;;;;9.00;4.43;;;3.10;97.50;;;;;;4336420;33;20223;-65
2021/04/23 02:35:56;;;;;;;12.73;5.23;;;3.00;97.20;;;;;;4341071;33;20160;-61
2021/04/23 02:38:23;;;;;;;15.87;5.20;;;3.00;97.10;;;;;;4330500;33;20153;-61
2021/04/23 02:40:59;;;;;;;10.00;5.23;;;3.00;97.30;;;;;;4344837;33;20157;-60
2021/04/23 02:43:47;;;;;;;12.67;5.20;;;2.90;97.60;;;;;;4344148;33;20190;-61
2021/04/23 02:46:18;;;;;;;10.50;4.80;;;2.90;97.40;;;;;;4341571;33;20160;-63
2021/04/23 02:51:41;;;;;;;11.93;4.60;;;2.90;97.40;;;;;;4329514;33;20692;-60
2021/04/23 02:54:11;;;;;;;13.03;4.80;;;2.80;97.40;;;;;;4338141;33;20469;-60
2021/04/23 02:56:53;;;;;;;11.43;4.93;;;2.80;97.40;;;;;;4355641;32;20156;-63
2021/04/23 02:59:26;;;;;;;14.37;5.53;;;2.70;97.40;;;;;;4391262;32;20580;-59
2021/04/23 03:01:56;;;;;;;12.77;4.87;;;2.70;97.30;;;;;;4390849;32;20148;-59
2021/04/23 03:07:24;;;;;;;11.57;5.60;;;2.60;97.20;;;;;;4390848;32;20139;-60
2021/04/23 03:09:59;;;;;;;12.10;5.30;;;2.60;97.70;;;;;;4391059;32;20159;-64
2021/04/23 03:12:31;;;;;;;8.83;4.50;;;2.50;97.50;;;;;;4390679;32;20155;-63
2021/04/23 03:15:11;;;;;;;11.93;4.87;;;2.50;97.80;;;;;;4391821;32;20156;-62
2021/04/23 03:17:54;;;;;;;8.77;4.73;;;2.50;97.80;;;;;;4390056;32;20543;-63
2021/04/23 03:20:32;;;;;;;9.83;5.10;;;2.50;97.90;;;;;;4390873;32;20151;-61
2021/04/23 03:23:03;;;;;;;8.50;4.60;;;2.50;98.00;;;;;;4390410;32;20207;-62
2021/04/23 03:25:33;;;;;;;10.70;4.87;;;2.50;97.70;;;;;;4390891;32;20140;-63
2021/04/23 03:28:01;;;;;;;9.33;4.10;;;2.50;97.50;;;;;;4390050;32;20242;-63
2021/04/23 03:30:41;;;;;;;12.33;4.87;;;2.50;97.80;;;;;;4391130;32;20638;-63
2021/04/23 03:33:25;;;;;;;11.13;5.50;;;2.50;97.90;;;;;;4391111;32;20170;-63
2021/04/23 03:36:05;;;;;;;10.97;5.03;;;2.50;98.00;;;;;;4390176;32;20614;-60
2021/04/23 03:38:39;;;;;;;10.13;5.07;;;2.40;98.00;;;;;;4389807;32;20583;-63
2021/04/23 03:41:12;;;;;;;11.03;4.93;;;2.40;98.00;;;;;;4375732;32;20136;-59
2021/04/23 03:43:54;;;;;;;12.87;5.27;;;2.50;98.40;;;;;;4383800;32;20658;-61
2021/04/23 03:46:29;;;;;;;10.37;5.10;;;2.50;98.30;;;;;;4390541;32;20148;-59
2021/04/23 03:49:00;;;;;;;10.70;5.03;;;2.40;98.30;;;;;;4389684;32;20144;-61
2021/04/23 03:51:34;;;;;;;9.77;4.57;;;2.40;98.50;;;;;;4390319;32;20497;-63
2021/04/23 03:54:04;;;;;;;10.07;4.80;;;2.40;98.60;;;;;;4390209;32;20147;-63
2021/04/23 03:56:43;;;;;;;9.10;5.27;;;2.40;98.60;;;;;;4389570;32;20176;-62
2021/04/23 03:59:20;;;;;;;18.33;5.37;;;2.30;98.70;;;;;;4390167;32;20155;-62
2021/04/23 04:01:50;;;;;;;12.03;5.20;;;2.30;98.90;;;;;;4389991;32;20527;-61
2021/04/23 04:04:17;;;;;;;9.87;4.83;;;2.30;98.90;;;;;;4390315;32;20186;-61
2021/04/23 04:06:49;;;;;;;10.53;4.90;;;2.30;99.10;;;;;;4390040;32;20214;-63
2021/04/23 04:09:23;;;;;;;7.37;4.50;;;2.20;99.20;;;;;;4387573;32;20144;-60
2021/04/23 04:11:50;;;;;;;13.43;5.47;;;2.20;99.00;;;;;;4390075;32;20162;-58
2021/04/23 04:14:34;;;;;;;10.87;5.33;;;2.20;98.90;;;;;;4396190;32;20156;-63
2021/04/23 04:17:07;;;;;;;9.60;4.33;;;2.20;98.90;;;;;;4400357;32;20253;-60
2021/04/23 04:19:46;;;;;;;10.10;4.90;;;2.20;99.20;;;;;;4380134;32;20170;-60
2021/04/23 04:22:19;;;;;;;10.70;5.10;;;2.20;99.50;;;;;;4389838;32;20150;-63
2021/04/23 04:25:04;;;;;;;14.27;5.47;;;2.30;99.90;;;;;;4389042;32;20180;-62
2021/04/23 04:27:42;;;;;;;12.03;5.63;;;2.20;99.70;;;;;;4388764;32;20531;-61
2021/04/23 04:30:16;;;;;;;16.43;5.47;;;2.20;99.40;;;;;;4391430;32;20163;-61
2021/04/23 04:32:49;;;;;;;9.53;5.50;;;2.20;99.70;;;;;;4393613;32;20140;-61
2021/04/23 04:35:20;;;;;;;16.17;6.00;;;2.20;99.90;;;;;;4393565;32;20808;-63
2021/04/23 04:37:50;;;;;;;10.63;4.83;;;2.20;99.90;;;;;;4392439;32;20608;-61
2021/04/23 04:40:27;;;;;;;14.57;5.93;;;2.20;99.70;;;;;;4393359;32;20136;-60
2021/04/23 04:43:01;;;;;;;12.17;5.17;;;2.30;99.90;;;;;;4393389;32;20142;-61
2021/04/23 04:45:29;;;;;;;12.00;5.10;;;2.30;99.90;;;;;;4393218;32;20231;-61
2021/04/23 04:48:07;;;;;;;17.07;5.83;;;2.30;99.90;;;;;;4392351;32;20178;-61
2021/04/23 04:50:40;;;;;;;17.83;7.10;;;2.50;99.90;;;;;;4393023;32;20148;-62
2021/04/23 04:53:17;;;;;;;12.03;5.63;;;2.50;99.90;;;;;;4392774;32;20205;-62
2021/04/23 04:55:49;;;;;;;15.40;5.80;;;2.60;99.90;;;;;;4394533;32;20162;-64
2021/04/23 04:58:21;;;;;;;15.23;6.93;;;2.70;99.90;;;;;;4394808;32;20184;-58
2021/04/23 05:01:19;;;;;;;;;;;;;;;;;;;;;
2021/04/23 05:03:49;;;;;;;13.27;5.77;;;2.90;99.90;;;;;;4360645;33;20172;-63
2021/04/23 05:06:19;;;;;;;15.23;6.70;;;3.10;99.90;;;;;;4363923;32;20538;-65
2021/04/23 05:08:55;;;;;;;11.67;4.73;;;3.40;99.90;;;;;;4360790;33;20255;-63
2021/04/23 05:11:26;;;;;;;11.23;5.57;;;3.90;99.60;;;;;;4359744;33;20160;-61
2021/04/23 05:13:54;;;;;;;14.33;5.70;;;4.30;98.60;;;;;;4360902;32;20153;-62
2021/04/23 05:16:38;;;;;;;12.27;5.60;;;4.60;98.00;;;;;;4359359;33;20160;-60
2021/04/23 05:19:13;;;;;;;13.33;5.80;;;5.20;97.20;;;;;;4357838;32;20291;-63
2021/04/23 05:21:39;;;;;;;10.90;5.43;;;6.30;95.90;;;;;;4356038;33;20175;-62
2021/04/23 05:24:16;;;;;;;11.13;5.20;;;7.40;93.60;;;;;;4360583;32;20476;-60
2021/04/23 05:26:48;;;;;;;10.00;5.30;;;8.60;91.10;;;;;;4359412;32;20156;-59
2021/04/23 05:29:27;;;;;;;11.20;5.23;;;8.60;89.50;;;;;;4359098;32;20178;-63
2021/04/23 05:32:21;;;;;;;17.30;5.30;;;8.30;89.10;;;;;;4360641;32;20504;-60
2021/04/23 05:35:04;;;;;;;10.40;4.90;;;7.70;90.20;;;;;;4358112;33;20168;-65
2021/04/23 05:37:48;;;;;;;11.00;5.80;;;7.20;91.40;;;;;;4358485;33;20204;-62
2021/04/23 05:40:43;;;;;;;13.50;6.17;;;7.00;92.20;;;;;;4367738;32;20145;-63
2021/04/23 05:43:39;;;;;;;10.40;5.20;;;6.90;92.50;;;;;;4390348;32;20155;-62
2021/04/23 05:46:16;;;;;;;12.33;4.70;;;6.80;93.30;;;;;;4389244;32;20162;-62
2021/04/23 05:48:50;;;;;;;14.37;5.13;;;7.10;96.20;;;;;;4388948;32;20175;-61
2021/04/23 05:51:30;;;;;;;8.90;4.93;;;9.00;93.90;;;;;;4390089;32;20235;-60
2021/04/23 05:54:06;;;;;;;14.47;4.70;;;10.60;90.50;;;;;;4392380;32;20282;-61
2021/04/23 05:56:49;;;;;;;8.97;3.73;;;13.10;83.30;;;;;;4390615;32;20215;-62
2021/04/23 05:59:26;;;;;;;10.63;3.73;;;14.50;75.10;;;;;;4389688;32;20233;-61
2021/04/23 06:01:52;;;;;;;9.20;3.23;;;15.60;68.30;;;;;;4391375;32;20220;-62
2021/04/23 06:04:28;;;;;;;14.60;4.07;;;14.80;67.60;;;;;;4389950;32;20156;-63
2021/04/23 06:07:17;;;;;;;9.67;3.87;;;12.70;73.20;;;;;;4390462;32;20144;-59
2021/04/23 06:09:49;;;;;;;11.40;3.37;;;10.40;81.40;;;;;;4388010;32;20594;-59
2021/04/23 06:12:22;;;;;;;8.63;3.20;;;9.50;85.60;;;;;;4390468;32;20215;-60
2021/04/23 06:14:56;;;;;;;12.37;3.37;;;9.30;87.00;;;;;;4391164;32;20186;-60
2021/04/23 06:17:31;;;;;;;15.37;4.30;;;8.40;90.20;;;;;;4390218;32;20155;-59
2021/04/23 06:20:16;;;;;;;9.63;3.17;;;7.80;91.40;;;;;;4389109;32;20302;-62
2021/04/23 06:22:43;;;;;;;11.93;3.50;;;7.90;91.30;;;;;;4390579;32;20209;-59
2021/04/23 06:25:13;;;;;;;11.77;3.80;;;7.90;91.70;;;;;;4390298;32;20182;-60
2021/04/23 06:27:45;;;;;;;9.43;3.30;;;7.80;91.60;;;;;;4390328;32;20214;-62
2021/04/23 06:30:15;;;;;;;15.13;2.90;;;7.80;91.40;;;;;;4389817;32;20179;-60
2021/04/23 06:32:44;;;;;;;10.33;3.47;;;7.70;91.70;;;;;;4389496;32;20152;-60
2021/04/23 06:35:24;;;;;;;9.60;2.93;;;7.90;92.00;;;;;;4391222;32;20223;-60
2021/04/23 06:37:56;;;;;;;12.00;3.40;;;7.90;91.20;;;;;;4389815;32;20211;-60
2021/04/23 06:40:27;;;;;;;8.83;2.97;;;8.00;91.40;;;;;;4389967;32;20536;-60
2021/04/23 06:43:01;;;;;;;13.43;2.90;;;8.30;90.80;;;;;;4388465;32;20593;-62
2021/04/23 06:45:33;;;;;;;12.73;2.97;;;8.30;90.60;;;;;;4387953;32;20558;-60
2021/04/23 06:50:52;;;;;;;12.87;3.70;;;8.90;90.40;;;;;;4389564;32;20176;-60
2021/04/23 06:53:23;;;;;;;9.40;2.73;;;8.80;89.00;;;;;;4392693;32;20695;-63
2021/04/23 06:55:55;;;;;;;5.80;2.63;;;8.90;89.00;;;;;;4386629;32;20211;-60
2021/04/23 06:59:02;;;;;;;13.07;3.10;;;9.20;88.60;;;;;;4390084;32;20634;-60
2021/04/23 07:01:32;;;;;;;10.47;2.57;;;9.40;87.90;;;;;;4341632;33;20558;-61
2021/04/23 07:04:14;;;;;;;12.10;3.10;;;9.70;86.50;;;;;;4343371;33;20153;-59
2021/04/23 07:09:47;;;;;;;8.50;2.83;;;9.40;83.40;;;;;;4341817;33;20256;-60
2021/04/23 07:12:46;;;;;;;9.33;2.20;;;8.90;85.00;;;;;;4342420;33;20161;-59
2021/04/23 07:15:26;;;;;;;11.07;2.70;;;9.40;85.20;;;;;;4342033;33;20339;-59
2021/04/23 07:18:09;;;;;;;10.77;2.20;;;9.70;80.90;;;;;;4343468;33;20160;-59
2021/04/23 07:20:36;;;;;;;6.13;2.43;;;10.30;81.50;;;;;;4343551;33;20161;-59
2021/04/23 07:23:19;;;;;;;9.80;2.90;;;14.60;69.60;;;;;;4341886;33;20160;-59
2021/04/23 07:26:18;;;;;;;7.40;2.73;;;19.60;57.10;;;;;;4339598;33;20305;-60
2021/04/23 07:29:04;;;;;;;8.10;2.33;;;26.50;40.50;;;;;;4344371;33;20581;-62
2021/04/23 07:31:31;;;;;;;9.37;2.43;;;31.90;32.20;;;;;;4344413;33;20158;-59
2021/04/23 07:34:12;;;;;;;5.77;2.00;;;28.60;31.30;;;;;;4344264;33;20631;-60
2021/04/23 07:36:43;;;;;;;11.80;2.33;;;31.20;30.30;;;;;;4340633;33;20153;-60
2021/04/23 07:39:26;;;;;;;8.73;2.30;;;26.70;33.20;;;;;;4384383;32;20144;-61
2021/04/23 07:42:06;;;;;;;7.70;2.23;;;28.90;30.90;;;;;;4387562;32;20195;-59
2021/04/23 07:45:02;;;;;;;5.10;2.17;;;28.20;31.00;;;;;;4386277;32;20603;-60
2021/04/23 07:47:35;;;;;;;8.37;2.63;;;28.80;32.10;;;;;;4387604;32;20148;-59
2021/04/23 07:50:08;;;;;;;10.13;3.27;;;28.60;31.60;;;;;;4389209;32;20506;-59
2021/04/23 07:52:36;;;;;;;7.50;2.37;;;28.60;30.00;;;;;;4384996;32;20148;-61
2021/04/23 07:55:10;;;;;;;8.23;2.23;;;31.00;30.20;;;;;;4389605;32;20148;-60
2021/04/23 08:01:05;;;;;;;5.30;2.13;;;31.80;30.60;;;;;;4387882;32;20178;-60
2021/04/23 08:03:35;;;;;;;9.87;2.50;;;30.00;29.30;;;;;;4385775;32;20156;-61
2021/04/23 08:06:24;;;;;;;6.67;2.60;;;26.30;32.40;;;;;;4393448;32;20156;-61
2021/04/23 08:09:01;;;;;;;8.17;2.30;;;25.10;33.50;;;;;;4383528;32;20257;-60
2021/04/23 08:11:36;;;;;;;7.37;2.30;;;27.60;32.80;;;;;;4387654;32;20143;-60
2021/04/23 08:14:17;;;;;;;8.10;2.73;;;29.60;31.90;;;;;;4389320;32;20197;-60
2021/04/23 08:16:45;;;;;;;6.53;2.00;;;35.60;28.60;;;;;;4387423;32;20167;-60
2021/04/23 08:19:28;;;;;;;8.90;2.28;;;38.90;27.20;;;;;;4389863;32;20145;-60
2021/04/23 08:22:00;;;;;;;7.68;2.10;;;41.20;26.40;;;;;;4388328;32;20195;-60
2021/04/23 08:24:33;;;;;;;5.60;1.98;;;41.50;25.90;;;;;;4387977;32;20176;-60
2021/04/23 08:27:15;;;;;;;11.55;2.47;;;43.00;25.50;;;;;;4388509;32;20156;-61
2021/04/23 08:29:54;;;;;;;4.62;1.83;;;43.00;24.50;;;;;;4388891;32;20170;-60
2021/04/23 08:32:49;;;;;;;6.45;2.28;;;43.10;25.00;;;;;;4389940;32;20163;-60
2021/04/23 08:35:20;;;;;;;7.28;2.33;;;43.70;24.40;;;;;;4334475;33;20220;-60
2021/04/23 08:37:50;;;;;;;6.22;2.47;;;44.30;24.70;;;;;;4330731;33;20312;-60
2021/04/23 08:40:18;;;;;;;8.48;2.80;;;44.30;24.00;;;;;;4337169;33;20168;-61
2021/04/23 08:42:48;;;;;;;7.35;2.40;;;43.60;24.30;;;;;;4336151;33;20183;-60
2021/04/23 08:45:21;;;;;;;5.47;1.92;;;43.70;24.10;;;;;;4341590;33;20189;-60
2021/04/23 08:48:01;;;;;;;7.60;2.72;;;43.10;24.40;;;;;;4339766;33;20307;-61
2021/04/23 08:50:44;;;;;;;5.85;2.10;;;42.70;24.10;;;;;;4333898;33;20609;-60
2021/04/23 08:53:20;;;;;;;5.57;2.08;;;42.00;24.60;;;;;;4334592;33;20274;-60
2021/04/23 08:55:55;;;;;;;9.82;2.70;;;40.80;24.10;;;;;;4336456;33;20318;-61
2021/04/23 08:58:26;;;;;;;5.78;2.47;;;39.20;24.70;;;;;;4335181;33;20160;-61
2021/04/23 09:01:12;;;;;;;10.40;2.65;;;41.10;24.70;;;;;;4335076;33;20506;-61
2021/04/23 09:03:56;;;;;;;7.57;2.28;;;38.70;24.60;;;;;;4339650;33;20141;-61
2021/04/23 09:06:46;;;;;;;7.25;2.72;;;38.80;24.50;;;;;;4341402;33;20176;-61
2021/04/23 09:09:25;;;;;;;9.40;2.60;;;33.00;26.10;;;;;;4339752;33;20153;-60
2021/04/23 09:11:58;;;;;;;8.87;2.47;;;27.50;28.30;;;;;;4383396;32;20144;-60
2021/04/23 09:14:33;;;;;;;8.20;2.67;;;25.80;30.90;;;;;;4388003;32;20645;-61
2021/04/23 09:17:04;;;;;;;8.27;2.40;;;21.80;35.90;;;;;;4389669;32;20166;-61
2021/04/23 09:19:54;;;;;;;8.93;2.37;;;21.20;36.10;;;;;;4393196;32;20462;-60
2021/04/23 09:22:38;;;;;;;10.13;2.50;;;17.40;40.90;;;;;;4328211;33;20146;-60
2021/04/23 09:25:17;;;;;;;10.27;2.87;;;16.00;45.00;;;;;;4327893;33;20165;-61
2021/04/23 09:27:50;;;;;;;9.73;2.33;;;15.80;47.90;;;;;;4330344;33;20624;-61
2021/04/23 09:30:26;;;;;;;8.17;2.33;;;15.20;50.30;;;;;;4330179;33;20165;-62
2021/04/23 09:32:53;;;;;;;7.60;2.30;;;14.60;53.80;;;;;;4330951;33;20204;-61
2021/04/23 09:35:26;;;;;;;12.93;2.73;;;14.30;57.10;;;;;;4329447;33;20609;-61
2021/04/23 09:37:53;;;;;;;12.00;2.77;;;13.70;59.00;;;;;;4330317;33;20574;-60
2021/04/23 09:40:24;;;;;;;8.07;2.50;;;14.20;58.40;;;;;;4328594;33;20176;-59
2021/04/23 09:42:58;;;;;;;5.27;2.20;;;14.50;57.50;;;;;;4329353;33;20177;-60
2021/04/23 09:45:26;;;;;;;9.50;2.60;;;14.60;58.10;;;;;;4326997;33;20227;-61
2021/04/23 09:48:04;;;;;;;7.40;2.60;;;14.70;57.30;;;;;;4325631;33;20184;-60
2021/04/23 09:50:40;;;;;;;12.77;2.53;;;14.80;58.30;;;;;;4333906;33;21350;-59
2021/04/23 09:53:13;;;;;;;11.57;2.73;;;14.60;57.70;;;;;;4327108;33;20261;-60
2021/04/23 09:55:44;;;;;;;10.07;2.53;;;14.30;59.60;;;;;;4325726;33;20315;-59
2021/04/23 09:58:14;;;;;;;7.37;2.83;;;14.20;59.10;;;;;;4332273;32;20150;-59
2021/04/23 10:00:56;;;;;;;7.60;2.77;;;14.30;59.80;;;;;;4386463;32;20572;-59
2021/04/23 10:07:23;;;;;;;6.90;2.20;;;14.20;59.30;;;;;;4345471;33;20165;-59
2021/04/23 10:10:00;;;;;;;10.83;2.87;;;14.20;57.50;;;;;;4343167;33;20153;-62
2021/04/23 10:12:42;;;;;;;7.53;2.67;;;13.60;60.00;;;;;;4347660;32;20495;-62
2021/04/23 10:15:27;;;;;;;8.43;2.60;;;13.20;62.30;;;;;;4344741;33;20652;-61
2021/04/23 10:18:02;;;;;;;13.13;3.00;;;13.60;62.10;;;;;;4347068;33;20224;-59
2021/04/23 10:20:46;;;;;;;10.30;2.17;;;13.90;62.40;;;;;;4344550;33;20220;-60
2021/04/23 10:23:19;;;;;;;12.43;3.10;;;13.90;60.40;;;;;;4344626;33;20153;-61
2021/04/23 10:25:55;;;;;;;8.47;2.33;;;13.90;60.40;;;;;;4334991;33;20176;-61
2021/04/23 10:28:27;;;;;;;9.13;2.43;;;13.70;61.30;;;;;;4342161;33;20167;-61
2021/04/23 10:30:58;;;;;;;14.27;2.77;;;13.10;63.20;;;;;;4343705;32;22429;-60
2021/04/23 10:33:40;;;;;;;9.77;2.77;;;13.50;63.40;;;;;;4343593;33;20279;-61
2021/04/23 10:36:16;;;;;;;12.00;3.60;;;13.60;62.20;;;;;;4344683;33;20220;-60
2021/04/23 10:38:49;;;;;;;13.17;3.10;;;14.00;63.30;;;;;;4344854;33;20144;-60
2021/04/23 10:41:24;;;;;;;11.67;2.67;;;14.10;62.00;;;;;;4341240;33;20203;-62
2021/04/23 10:44:11;;;;;;;12.83;2.90;;;13.80;60.50;;;;;;4362893;32;20476;-61
2021/04/23 10:47:11;;;;;;;;;;;;;;;;;;;;;
2021/04/23 10:53:23;;;;;;;10.23;2.53;;;13.80;59.30;;;;;;4373301;32;20312;-60
2021/04/23 10:55:55;;;;;;;8.47;2.73;;;13.60;62.20;;;;;;4327231;33;20704;-59
2021/04/23 10:58:41;;;;;;;7.93;2.93;;;13.60;60.30;;;;;;4327076;33;20166;-60
2021/04/23 11:01:36;;;;;;;12.70;2.60;;;13.60;60.00;;;;;;4328869;33;20260;-60
2021/04/23 11:04:13;;;;;;;11.17;2.73;;;13.10;62.50;;;;;;4330594;33;20552;-59
2021/04/23 11:07:03;;;;;;;7.43;2.67;;;13.50;62.00;;;;;;4328196;33;20688;-60
2021/04/23 11:10:07;;;;;;;15.70;3.20;;;13.80;62.80;;;;;;4334060;33;20203;-62
2021/04/23 11:13:19;;;;;;;7.93;2.60;;;14.30;60.10;;;;;;4321883;33;20170;-60
2021/04/23 11:16:24;;;;;;;8.77;3.00;;;13.80;58.00;;;;;;4318554;33;20231;-61
2021/04/23 11:18:59;;;;;;;11.20;3.03;;;13.60;60.20;;;;;;4328347;33;20517;-62
2021/04/23 11:21:45;;;;;;;10.20;2.70;;;13.30;58.80;;;;;;4329710;33;20219;-60
2021/04/23 11:24:29;;;;;;;6.63;2.53;;;13.40;59.20;;;;;;4329684;33;20244;-60
2021/04/23 11:27:06;;;;;;;11.40;3.03;;;13.30;58.60;;;;;;4328571;33;20226;-60
2021/04/23 11:29:38;;;;;;;9.03;2.77;;;13.60;61.50;;;;;;4331225;33;20217;-60
2021/04/23 11:32:41;;;;;;;7.83;3.00;;;13.90;60.00;;;;;;4354743;32;20597;-60
2021/04/23 11:35:29;;;;;;;8.97;2.87;;;13.70;59.10;;;;;;4388336;32;20661;-61
2021/04/23 11:38:02;;;;;;;13.10;3.47;;;13.40;58.80;;;;;;4390442;32;20202;-61
2021/04/23 11:40:33;;;;;;;11.07;3.40;;;13.70;59.50;;;;;;4391561;32;20162;-61
2021/04/23 11:43:12;;;;;;;7.27;3.17;;;14.10;58.60;;;;;;4390898;32;20567;-61
2021/04/23 11:45:50;;;;;;;7.77;2.67;;;14.20;58.00;;;;;;4388074;32;20165;-62
2021/04/23 11:48:47;;;;;;;11.07;3.27;;;14.20;58.70;;;;;;4387468;32;20148;-63
2021/04/23 11:51:15;;;;;;;9.07;2.90;;;13.70;57.00;;;;;;4388894;32;20220;-61
2021/04/23 11:54:01;;;;;;;11.60;3.23;;;13.50;57.60;;;;;;4390245;32;20164;-60
2021/04/23 11:56:45;;;;;;;6.60;2.57;;;13.70;56.70;;;;;;4389381;32;20669;-59
2021/04/23 11:59:17;;;;;;;7.33;2.73;;;13.50;56.10;;;;;;4388180;32;20572;-60
2021/04/23 12:01:43;;;;;;;7.77;2.67;;;13.40;57.60;;;;;;4385895;32;20156;-61
2021/04/23 12:04:10;;;;;;;10.40;2.87;;;13.30;57.60;;;;;;4379148;32;20193;-61
2021/04/23 12:06:54;;;;;;;5.30;2.53;;;13.50;57.80;;;;;;4389889;32;20186;-62
2021/04/23 12:09:21;;;;;;;9.03;3.00;;;13.40;56.30;;;;;;4389755;32;20573;-60
2021/04/23 12:11:47;;;;;;;8.67;3.27;;;13.40;57.10;;;;;;4389433;32;20174;-61
2021/04/23 12:14:15;;;;;;;8.67;3.20;;;13.60;56.70;;;;;;4389634;32;20152;-61
2021/04/23 12:16:44;;;;;;;7.50;2.90;;;13.40;58.30;;;;;;4388662;32;20155;-61
2021/04/23 12:19:11;;;;;;;11.10;2.93;;;13.80;59.40;;;;;;4383630;32;20192;-61
2021/04/23 12:21:45;;;;;;;10.70;3.07;;;13.80;58.00;;;;;;4389666;32;20164;-61
2021/04/23 12:24:15;;;;;;;8.33;3.77;;;13.80;58.20;;;;;;4384780;32;20167;-62
2021/04/23 12:26:48;;;;;;;6.53;3.13;;;13.90;57.10;;;;;;4389892;32;20156;-61
2021/04/23 12:29:24;;;;;;;9.87;3.40;;;13.90;57.90;;;;;;4388328;32;20206;-61
2021/04/23 12:31:56;;;;;;;8.53;3.17;;;13.90;57.90;;;;;;4389377;32;20167;-59
2021/04/23 12:34:31;;;;;;;9.43;3.60;;;13.80;58.50;;;;;;4388600;32;20175;-60
2021/04/23 12:36:58;;;;;;;7.40;3.13;;;14.10;58.80;;;;;;4383925;32;20171;-61
2021/04/23 12:39:40;;;;;;;;;;;;;;;;;;;;;
2021/04/23 12:42:07;;;;;;;9.90;3.60;;;13.70;58.20;;;;;;4390938;32;20475;-60
2021/04/23 12:44:51;;;;;;;7.47;3.30;;;13.80;58.40;;;;;;4388691;32;20170;-60
2021/04/23 12:47:21;;;;;;;7.00;3.57;;;14.10;59.10;;;;;;4386219;32;20148;-60
2021/04/23 12:50:07;;;;;;;13.20;3.40;;;14.00;57.50;;;;;;4389297;32;20159;-59
2021/04/23 12:52:48;;;;;;;11.67;3.50;;;14.00;57.20;;;;;;4391020;32;20148;-61
2021/04/23 12:58:08;;;;;;;9.10;3.63;;;13.60;59.70;;;;;;4344449;33;20279;-60
2021/04/23 13:03:37;;;;;;;7.17;3.20;;;13.90;58.20;;;;;;4343293;33;20165;-59
2021/04/23 13:06:11;;;;;;;9.73;3.20;;;14.00;58.60;;;;;;4346104;33;20149;-61
2021/04/23 13:08:43;;;;;;;9.13;3.30;;;14.10;58.70;;;;;;4343460;33;20265;-60
2021/04/23 13:11:16;;;;;;;11.03;3.73;;;13.90;58.20;;;;;;4344616;33;20173;-61
2021/04/23 13:13:48;;;;;;;13.77;3.43;;;13.80;58.50;;;;;;4344180;33;20598;-61
2021/04/23 13:16:15;;;;;;;8.43;3.50;;;13.90;58.80;;;;;;4343013;33;20185;-60
2021/04/23 13:18:48;;;;;;;6.10;3.30;;;14.30;57.80;;;;;;4349774;32;20183;-60
2021/04/23 13:21:19;;;;;;;9.57;3.60;;;14.50;56.20;;;;;;4344689;33;20172;-59
2021/04/23 13:24:05;;;;;;;9.50;3.40;;;14.40;55.20;;;;;;4346170;33;20176;-60
2021/04/23 13:26:40;;;;;;;10.93;3.53;;;14.40;54.70;;;;;;4280415;33;20159;-60
2021/04/23 13:29:19;;;;;;;11.17;3.40;;;14.50;56.00;;;;;;4315962;33;20235;-61
2021/04/23 13:31:59;;;;;;;7.83;3.47;;;14.00;57.10;;;;;;4344409;32;20212;-61
2021/04/23 13:34:31;;;;;;;7.53;3.70;;;14.00;56.70;;;;;;4343979;33;20188;-61
2021/04/23 13:37:09;;;;;;;7.50;3.50;;;14.20;56.20;;;;;;4338206;33;20173;-62
2021/04/23 13:39:58;;;;;;;6.90;3.47;;;14.30;55.80;;;;;;4338913;33;20183;-60
2021/04/23 13:42:27;;;;;;;8.33;3.40;;;14.30;56.00;;;;;;4339785;33;20176;-60
2021/04/23 13:45:07;;;;;;;12.07;3.07;;;14.30;54.60;;;;;;4336978;33;20153;-60
2021/04/23 13:47:39;;;;;;;12.37;3.67;;;14.40;54.60;;;;;;4337782;33;20496;-60
2021/04/23 13:50:20;;;;;;;9.47;3.17;;;14.30;55.20;;;;;;4341363;33;20164;-61
2021/04/23 13:53:17;;;;;;;9.53;4.07;;;14.20;54.90;;;;;;4342045;33;20245;-61
2021/04/23 13:56:00;;;;;;;6.07;3.87;;;14.30;54.90;;;;;;4339978;33;20189;-61
2021/04/23 13:58:26;;;;;;;6.67;3.00;;;14.30;53.50;;;;;;4338612;32;20240;-60
2021/04/23 14:00:58;;;;;;;9.17;4.20;;;14.20;54.90;;;;;;4340667;33;20173;-60
2021/04/23 14:03:41;;;;;;;8.27;3.43;;;14.30;55.30;;;;;;4359290;32;20198;-60
2021/04/23 14:06:08;;;;;;;8.67;3.47;;;13.90;56.40;;;;;;4397472;32;20159;-59
2021/04/23 14:08:39;;;;;;;8.73;3.27;;;14.00;55.30;;;;;;4398329;32;20153;-60
2021/04/23 14:11:15;;;;;;;7.30;3.03;;;13.70;54.90;;;;;;4389655;32;20618;-60
2021/04/23 14:13:58;;;;;;;9.20;3.10;;;13.90;55.80;;;;;;4393475;32;20594;-60
2021/04/23 14:16:26;;;;;;;8.60;3.33;;;14.20;53.00;;;;;;4392706;32;20505;-59